createdAt,value
2018-05-11T00:00:11.404Z,13.57
2018-05-11T00:02:37.822Z,13.44
2018-05-11T00:05:04.376Z,13.59
2018-05-11T00:07:30.811Z,13.55
2018-05-11T00:09:57.203Z,13.52
2018-05-11T00:12:24.034Z,13.46
2018-05-11T00:14:50.407Z,13.42
2018-05-11T00:17:16.819Z,13.38
2018-05-11T00:19:43.203Z,13.37
2018-05-11T00:22:10.374Z,13.50
2018-05-11T00:24:36.875Z,13.44
2018-05-11T00:27:03.281Z,13.23
2018-05-11T00:29:29.814Z,13.28
2018-05-11T00:31:56.369Z,13.19
2018-05-11T00:34:22.856Z,13.20
2018-05-11T00:36:49.402Z,12.92
2018-05-11T00:39:15.801Z,13.08
2018-05-11T00:41:42.286Z,12.90
2018-05-11T00:44:08.741Z,12.67
2018-05-11T00:46:35.188Z,12.65
2018-05-11T00:49:02.730Z,12.56
2018-05-11T00:51:29.225Z,12.47
2018-05-11T00:53:55.654Z,12.52
2018-05-11T00:56:22.097Z,12.47
2018-05-11T00:58:48.440Z,12.61
2018-05-11T01:01:14.827Z,12.44
2018-05-11T01:03:41.199Z,12.64
2018-05-11T01:06:07.622Z,12.60
2018-05-11T01:08:34.045Z,12.45
2018-05-11T01:11:00.480Z,12.42
2018-05-11T01:13:26.836Z,12.47
2018-05-11T01:15:53.265Z,12.37
2018-05-11T01:18:19.711Z,12.30
2018-05-11T01:20:46.135Z,12.19
2018-05-11T01:23:12.523Z,12.10
2018-05-11T01:25:38.899Z,12.09
2018-05-11T01:28:05.323Z,12.13
2018-05-11T01:30:32.058Z,12.15
2018-05-11T01:32:58.550Z,12.33
2018-05-11T01:35:24.950Z,12.24
2018-05-11T01:37:51.288Z,12.26
2018-05-11T01:40:17.752Z,12.30
2018-05-11T01:42:44.121Z,12.17
2018-05-11T01:45:10.581Z,12.32
2018-05-11T01:47:36.978Z,12.12
2018-05-11T01:50:03.398Z,12.15
2018-05-11T01:52:29.796Z,12.14
2018-05-11T01:54:56.241Z,12.14
2018-05-11T01:57:22.790Z,12.38
2018-05-11T01:59:49.222Z,12.20
2018-05-11T02:02:15.565Z,12.25
2018-05-11T02:04:42.048Z,12.03
2018-05-11T02:07:08.468Z,11.93
2018-05-11T02:09:35.632Z,11.88
2018-05-11T02:12:02.079Z,12.00
2018-05-11T02:14:28.507Z,11.94
2018-05-11T02:16:54.875Z,11.87
2018-05-11T02:19:21.299Z,11.83
2018-05-11T02:21:47.737Z,11.75
2018-05-11T02:24:14.466Z,11.80
2018-05-11T02:26:40.825Z,11.87
2018-05-11T02:29:07.212Z,11.94
2018-05-11T02:31:33.630Z,12.03
2018-05-11T02:34:00.057Z,11.89
2018-05-11T02:36:27.194Z,11.97
2018-05-11T02:38:53.564Z,11.79
2018-05-11T02:41:19.969Z,11.74
2018-05-11T02:43:46.317Z,11.89
2018-05-11T02:46:12.727Z,11.82
2018-05-11T02:48:39.202Z,12.17
2018-05-11T02:51:05.556Z,11.90
2018-05-11T02:53:31.943Z,11.81
2018-05-11T02:55:59.254Z,11.75
2018-05-11T02:58:26.382Z,11.71
2018-05-11T03:00:52.858Z,11.72
2018-05-11T03:03:19.823Z,11.62
2018-05-11T03:05:46.255Z,11.53
2018-05-11T03:08:12.718Z,11.43
2018-05-11T03:10:39.948Z,11.42
2018-05-11T03:13:06.376Z,11.27
2018-05-11T03:15:33.527Z,11.13
2018-05-11T03:17:59.963Z,11.08
2018-05-11T03:20:26.608Z,11.19
2018-05-11T03:22:53.135Z,11.26
2018-05-11T03:25:19.574Z,11.25
2018-05-11T03:27:45.982Z,11.38
2018-05-11T03:30:12.431Z,11.42
2018-05-11T03:32:38.952Z,11.44
2018-05-11T03:35:05.369Z,11.40
2018-05-11T03:37:31.720Z,11.37
2018-05-11T03:39:58.161Z,11.43
2018-05-11T03:42:24.543Z,11.36
2018-05-11T03:44:51.903Z,11.32
2018-05-11T03:47:18.452Z,11.43
2018-05-11T03:49:45.055Z,11.35
2018-05-11T03:52:12.163Z,11.32
2018-05-11T03:54:38.497Z,11.32
2018-05-11T03:57:04.952Z,11.37
2018-05-11T03:59:31.285Z,11.31
2018-05-11T04:02:16.276Z,11.30
2018-05-11T04:05:01.280Z,11.19
2018-05-11T04:10:40.025Z,11.32
2018-05-11T04:13:06.426Z,11.38
2018-05-11T04:15:33.602Z,11.52
2018-05-11T04:18:00.076Z,11.45
2018-05-11T04:20:26.520Z,11.64
2018-05-11T04:22:53.654Z,11.59
2018-05-11T04:25:19.984Z,11.65
2018-05-11T04:27:46.946Z,11.63
2018-05-11T04:30:14.032Z,11.75
2018-05-11T04:32:40.438Z,11.70
2018-05-11T04:35:06.797Z,11.86
2018-05-11T04:37:33.903Z,11.65
2018-05-11T04:40:01.151Z,11.70
2018-05-11T04:42:28.459Z,11.77
2018-05-11T04:44:54.828Z,11.72
2018-05-11T04:47:21.975Z,11.86
2018-05-11T04:49:48.705Z,11.79
2018-05-11T04:52:15.829Z,11.84
2018-05-11T04:54:42.219Z,11.92
2018-05-11T04:57:08.637Z,12.09
2018-05-11T04:59:35.740Z,12.11
2018-05-11T05:02:02.215Z,12.21
2018-05-11T05:04:28.656Z,12.39
2018-05-11T05:06:55.192Z,12.45
2018-05-11T05:09:21.531Z,12.70
2018-05-11T05:11:47.975Z,12.72
2018-05-11T05:14:14.584Z,12.75
2018-05-11T05:16:40.957Z,12.90
2018-05-11T05:19:07.479Z,12.98
2018-05-11T05:21:34.590Z,13.29
2018-05-11T05:24:01.758Z,13.31
2018-05-11T05:26:28.264Z,13.38
2018-05-11T05:28:54.629Z,13.23
2018-05-11T05:31:21.076Z,13.33
2018-05-11T05:33:49.650Z,13.39
2018-05-11T05:36:16.144Z,13.56
2018-05-11T05:38:42.519Z,14.54
2018-05-11T05:41:08.906Z,15.64
2018-05-11T05:43:35.368Z,16.74
2018-05-11T05:46:01.885Z,17.30
2018-05-11T05:48:28.314Z,17.44
2018-05-11T05:50:54.761Z,18.05
2018-05-11T05:53:21.130Z,18.15
2018-05-11T05:55:47.558Z,18.87
2018-05-11T05:58:13.893Z,19.33
2018-05-11T06:00:40.327Z,19.59
2018-05-11T06:03:06.754Z,20.34
2018-05-11T06:05:33.138Z,19.89
2018-05-11T06:08:03.861Z,19.17
2018-05-11T06:10:31.047Z,19.52
2018-05-11T06:12:57.461Z,19.23
2018-05-11T06:15:23.936Z,19.54
2018-05-11T06:17:50.394Z,19.47
2018-05-11T06:20:16.952Z,19.42
2018-05-11T06:22:43.554Z,18.47
2018-05-11T06:25:09.943Z,19.06
2018-05-11T06:27:36.412Z,19.01
2018-05-11T06:30:03.111Z,19.34
2018-05-11T06:32:29.564Z,20.01
2018-05-11T06:34:56.152Z,20.12
2018-05-11T06:37:26.989Z,20.20
2018-05-11T06:39:54.497Z,19.50
2018-05-11T06:42:20.916Z,20.25
2018-05-11T06:44:47.387Z,20.86
2018-05-11T06:47:13.793Z,21.37
2018-05-11T06:49:40.251Z,19.85
2018-05-11T06:52:07.403Z,19.53
2018-05-11T06:54:33.916Z,19.63
2018-05-11T06:57:00.478Z,19.15
2018-05-11T06:59:27.883Z,18.72
2018-05-11T07:01:55.176Z,18.33
2018-05-11T07:04:22.702Z,17.64
2018-05-11T07:06:49.415Z,17.29
2018-05-11T07:09:16.009Z,16.98
2018-05-11T07:11:42.609Z,16.94
2018-05-11T07:14:09.054Z,16.66
2018-05-11T07:16:36.670Z,16.61
2018-05-11T07:19:07.499Z,16.93
2018-05-11T07:21:34.018Z,17.13
2018-05-11T07:24:01.008Z,17.59
2018-05-11T07:26:27.519Z,17.54
2018-05-11T07:28:53.979Z,17.52
2018-05-11T07:31:20.474Z,17.52
2018-05-11T07:33:46.954Z,17.50
2018-05-11T07:36:13.424Z,17.63
2018-05-11T07:38:40.485Z,17.51
2018-05-11T07:41:07.453Z,17.87
2018-05-11T07:43:33.982Z,18.02
2018-05-11T07:46:00.448Z,18.00
2018-05-11T07:48:26.960Z,18.11
2018-05-11T07:50:53.526Z,18.13
2018-05-11T07:53:20.869Z,18.19
2018-05-11T07:55:47.308Z,17.64
2018-05-11T07:58:13.830Z,17.44
2018-05-11T08:00:40.379Z,17.59
2018-05-11T08:03:07.808Z,17.88
2018-05-11T08:05:34.317Z,18.05
2018-05-11T08:08:01.203Z,18.33
2018-05-11T08:10:27.615Z,18.10
2018-05-11T08:12:54.231Z,18.03
2018-05-11T08:15:20.843Z,18.15
2018-05-11T08:17:47.436Z,18.32
2018-05-11T08:20:13.979Z,18.47
2018-05-11T08:22:40.958Z,18.44
2018-05-11T08:25:08.003Z,19.08
2018-05-11T08:27:34.539Z,19.28
2018-05-11T08:30:01.135Z,18.89
2018-05-11T08:32:28.357Z,19.26
2018-05-11T08:34:54.919Z,18.78
2018-05-11T08:37:21.352Z,18.37
2018-05-11T08:39:48.007Z,18.84
2018-05-11T08:42:14.493Z,19.19
2018-05-11T08:44:41.654Z,19.15
2018-05-11T08:47:08.941Z,18.81
2018-05-11T08:49:36.194Z,18.63
2018-05-11T08:52:03.028Z,19.11
2018-05-11T08:54:30.425Z,19.11
2018-05-11T08:56:56.979Z,19.01
2018-05-11T08:59:25.118Z,18.65
2018-05-11T09:01:52.323Z,18.99
2018-05-11T09:04:18.824Z,19.31
2018-05-11T09:06:45.288Z,19.44
2018-05-11T09:09:14.322Z,19.36
2018-05-11T09:11:41.590Z,19.69
2018-05-11T09:14:08.455Z,20.05
2018-05-11T09:16:35.092Z,20.31
2018-05-11T09:19:01.636Z,19.95
2018-05-11T09:21:28.307Z,20.27
2018-05-11T09:23:55.517Z,20.10
2018-05-11T09:26:22.092Z,19.70
2018-05-11T09:28:49.450Z,20.17
2018-05-11T09:31:16.615Z,20.51
2018-05-11T09:33:43.082Z,20.90
2018-05-11T09:36:09.871Z,21.19
2018-05-11T09:38:37.090Z,20.89
2018-05-11T09:41:03.575Z,20.48
2018-05-11T09:43:30.761Z,20.64
2018-05-11T09:45:57.223Z,20.84
2018-05-11T09:48:23.711Z,21.25
2018-05-11T09:50:50.169Z,21.20
2018-05-11T09:53:16.860Z,20.84
2018-05-11T09:55:43.289Z,21.03
2018-05-11T09:58:09.753Z,21.20
2018-05-11T10:00:36.302Z,21.74
2018-05-11T10:03:02.884Z,21.38
2018-05-11T10:05:29.344Z,21.60
2018-05-11T10:07:56.217Z,21.00
2018-05-11T10:10:22.507Z,20.34
2018-05-11T10:12:48.969Z,20.63
2018-05-11T10:15:15.886Z,20.95
2018-05-11T10:17:42.322Z,20.49
2018-05-11T10:20:08.878Z,20.52
2018-05-11T10:22:35.443Z,20.98
2018-05-11T10:25:02.024Z,20.96
2018-05-11T10:27:28.451Z,20.73
2018-05-11T10:29:54.932Z,21.18
2018-05-11T10:32:22.183Z,21.30
2018-05-11T10:34:48.703Z,21.44
2018-05-11T10:37:19.502Z,21.25
2018-05-11T10:39:45.980Z,21.01
2018-05-11T10:42:12.438Z,21.02
2018-05-11T10:44:39.916Z,21.10
2018-05-11T10:47:06.494Z,20.98
2018-05-11T10:49:32.966Z,20.44
2018-05-11T10:51:59.587Z,20.75
2018-05-11T10:54:26.001Z,20.89
2018-05-11T10:56:52.515Z,21.11
2018-05-11T10:59:19.564Z,20.78
2018-05-11T11:01:46.103Z,21.05
2018-05-11T11:04:12.631Z,21.02
2018-05-11T11:06:43.557Z,21.59
2018-05-11T11:09:10.019Z,22.35
2018-05-11T11:11:36.458Z,22.32
2018-05-11T11:14:02.979Z,22.71
2018-05-11T11:16:29.451Z,22.30
2018-05-11T11:18:55.834Z,22.89
2018-05-11T11:21:22.415Z,22.90
2018-05-11T11:23:48.920Z,22.69
2018-05-11T11:26:15.407Z,22.40
2018-05-11T11:28:42.539Z,21.74
2018-05-11T11:31:09.721Z,21.62
2018-05-11T11:33:36.271Z,21.59
2018-05-11T11:36:02.779Z,22.23
2018-05-11T11:38:29.231Z,22.90
2018-05-11T11:40:55.706Z,22.79
2018-05-11T11:43:22.378Z,22.46
2018-05-11T11:45:48.883Z,22.47
2018-05-11T11:48:15.323Z,22.41
2018-05-11T11:50:42.551Z,22.90
2018-05-11T11:53:09.327Z,23.23
2018-05-11T11:55:36.627Z,23.46
2018-05-11T11:58:03.117Z,22.82
2018-05-11T12:00:29.541Z,23.67
2018-05-11T12:02:56.045Z,24.17
2018-05-11T12:05:22.570Z,23.88
2018-05-11T12:07:49.738Z,23.77
2018-05-11T12:10:16.374Z,23.40
2018-05-11T12:12:42.979Z,22.41
2018-05-11T12:15:09.425Z,22.11
2018-05-11T12:17:35.859Z,21.99
2018-05-11T12:20:02.428Z,23.06
2018-05-11T12:22:29.668Z,23.73
2018-05-11T12:24:56.929Z,24.20
2018-05-11T12:27:23.473Z,24.74
2018-05-11T12:29:50.124Z,24.20
2018-05-11T12:32:16.613Z,23.22
2018-05-11T12:34:43.065Z,23.62
2018-05-11T12:37:10.321Z,23.03
2018-05-11T12:39:37.508Z,22.08
2018-05-11T12:42:04.237Z,22.76
2018-05-11T12:44:30.660Z,22.97
2018-05-11T12:46:57.106Z,23.07
2018-05-11T12:49:23.578Z,23.11
2018-05-11T12:51:49.972Z,22.76
2018-05-11T12:54:16.435Z,22.92
2018-05-11T12:56:42.901Z,22.83
2018-05-11T12:59:10.029Z,22.38
2018-05-11T13:01:36.450Z,21.85
2018-05-11T13:04:02.887Z,21.61
2018-05-11T13:06:29.668Z,21.88
2018-05-11T13:08:56.402Z,22.63
2018-05-11T13:11:22.894Z,22.73
2018-05-11T13:13:49.444Z,23.32
2018-05-11T13:16:16.657Z,23.94
2018-05-11T13:18:43.225Z,24.04
2018-05-11T13:21:09.861Z,23.45
2018-05-11T13:23:36.430Z,23.43
2018-05-11T13:26:02.914Z,23.99
2018-05-11T13:28:29.399Z,24.37
2018-05-11T13:30:55.866Z,24.33
2018-05-11T13:33:22.431Z,23.79
2018-05-11T13:35:48.940Z,24.29
2018-05-11T13:38:15.396Z,24.44
2018-05-11T13:40:41.855Z,23.96
2018-05-11T13:43:08.368Z,24.07
2018-05-11T13:45:34.879Z,23.54
2018-05-11T13:48:01.441Z,23.59
2018-05-11T13:50:28.777Z,23.75
2018-05-11T13:52:55.274Z,23.74
2018-05-11T13:55:21.739Z,24.09
2018-05-11T13:57:48.180Z,23.49
2018-05-11T14:00:14.575Z,23.50
2018-05-11T14:02:41.028Z,23.10
2018-05-11T14:05:07.539Z,22.40
2018-05-11T14:07:34.149Z,22.64
2018-05-11T14:10:00.680Z,23.11
2018-05-11T14:12:27.141Z,22.99
2018-05-11T14:14:53.873Z,22.81
2018-05-11T14:17:20.414Z,22.85
2018-05-11T14:19:46.989Z,23.18
2018-05-11T14:22:14.192Z,23.26
2018-05-11T14:24:41.353Z,23.34
2018-05-11T14:27:07.823Z,23.04
2018-05-11T14:29:34.236Z,23.50
2018-05-11T14:32:00.966Z,23.97
2018-05-11T14:34:27.576Z,24.41
2018-05-11T14:36:54.234Z,24.12
2018-05-11T14:39:21.600Z,23.85
2018-05-11T14:41:47.953Z,24.08
2018-05-11T14:44:14.475Z,24.34
2018-05-11T14:46:41.745Z,24.40
2018-05-11T14:49:09.085Z,24.39
2018-05-11T14:51:35.579Z,23.42
2018-05-11T14:54:02.120Z,22.72
2018-05-11T14:56:28.611Z,22.53
2018-05-11T14:58:55.189Z,22.86
2018-05-11T15:01:21.672Z,22.67
2018-05-11T15:03:48.144Z,22.36
2018-05-11T15:06:14.633Z,22.29
2018-05-11T15:08:41.902Z,22.71
2018-05-11T15:11:08.368Z,22.63
2018-05-11T15:13:34.807Z,22.17
2018-05-11T15:16:01.268Z,22.23
2018-05-11T15:18:27.678Z,22.05
2018-05-11T15:20:54.166Z,22.23
2018-05-11T15:23:20.754Z,22.35
2018-05-11T15:25:47.226Z,22.60
2018-05-11T15:28:13.759Z,22.38
2018-05-11T15:30:41.016Z,22.19
2018-05-11T15:33:07.494Z,22.11
2018-05-11T15:35:34.090Z,22.02
2018-05-11T15:38:00.521Z,21.86
2018-05-11T15:40:27.184Z,21.96
2018-05-11T15:42:53.521Z,22.05
2018-05-11T15:45:20.060Z,22.08
2018-05-11T15:47:46.596Z,22.14
2018-05-11T15:50:13.032Z,22.20
2018-05-11T15:52:39.904Z,22.21
2018-05-11T15:55:07.368Z,22.28
2018-05-11T15:57:34.086Z,22.52
2018-05-11T16:00:00.743Z,23.29
2018-05-11T16:02:27.216Z,23.69
2018-05-11T16:04:53.898Z,24.08
2018-05-11T16:07:20.369Z,24.11
2018-05-11T16:09:47.370Z,24.34
2018-05-11T16:12:13.849Z,23.96
2018-05-11T16:14:44.226Z,23.72
2018-05-11T16:17:10.759Z,23.98
2018-05-11T16:19:37.853Z,23.56
2018-05-11T16:22:04.314Z,23.15
2018-05-11T16:24:30.741Z,23.31
2018-05-11T16:26:57.223Z,23.24
2018-05-11T16:29:23.857Z,22.82
2018-05-11T16:31:50.361Z,22.56
2018-05-11T16:34:16.856Z,22.65
2018-05-11T16:36:43.444Z,22.41
2018-05-11T16:39:09.999Z,22.38
2018-05-11T16:41:36.622Z,22.45
2018-05-11T16:44:03.139Z,22.70
2018-05-11T16:46:29.767Z,22.89
2018-05-11T16:48:56.236Z,22.51
2018-05-11T16:51:22.846Z,22.26
2018-05-11T16:53:50.055Z,22.27
2018-05-11T16:56:16.710Z,21.99
2018-05-11T16:58:43.350Z,21.79
2018-05-11T17:01:09.903Z,21.88
2018-05-11T17:03:36.520Z,21.81
2018-05-11T17:06:03.079Z,21.92
2018-05-11T17:08:29.772Z,21.99
2018-05-11T17:10:56.626Z,22.19
2018-05-11T17:13:23.235Z,21.92
2018-05-11T17:15:50.578Z,21.81
2018-05-11T17:18:17.366Z,21.80
2018-05-11T17:20:43.932Z,21.72
2018-05-11T17:23:10.503Z,21.72
2018-05-11T17:25:36.971Z,21.72
2018-05-11T17:28:03.509Z,21.67
2018-05-11T17:30:30.440Z,21.63
2018-05-11T17:33:01.428Z,21.62
2018-05-11T17:35:28.042Z,21.53
2018-05-11T17:37:54.669Z,21.32
2018-05-11T17:40:21.108Z,21.27
2018-05-11T17:42:47.644Z,21.29
2018-05-11T17:45:14.201Z,21.44
2018-05-11T17:47:41.498Z,21.45
2018-05-11T17:50:08.001Z,21.15
2018-05-11T17:52:35.373Z,21.11
2018-05-11T17:55:01.921Z,20.98
2018-05-11T17:57:28.395Z,20.88
2018-05-11T17:59:56.069Z,20.82
2018-05-11T18:02:23.332Z,20.69
2018-05-11T18:04:49.771Z,20.59
2018-05-11T18:07:16.187Z,20.66
2018-05-11T18:09:42.851Z,20.65
2018-05-11T18:12:09.388Z,20.59
2018-05-11T18:14:36.896Z,20.49
2018-05-11T18:17:03.389Z,20.63
2018-05-11T18:19:29.940Z,20.42
2018-05-11T18:21:56.846Z,20.28
2018-05-11T18:24:23.255Z,20.36
2018-05-11T18:26:49.706Z,20.29
2018-05-11T18:29:17.079Z,20.20
2018-05-11T18:31:43.594Z,20.16
2018-05-11T18:34:11.856Z,20.13
2018-05-11T18:36:39.076Z,19.85
2018-05-11T18:39:05.535Z,19.76
2018-05-11T18:41:31.985Z,19.82
2018-05-11T18:43:59.245Z,19.75
2018-05-11T18:46:25.778Z,19.77
2018-05-11T18:48:52.315Z,19.56
2018-05-11T18:51:18.850Z,19.51
2018-05-11T18:53:45.605Z,19.33
2018-05-11T18:56:12.691Z,19.34
2018-05-11T18:58:39.903Z,19.31
2018-05-11T19:01:06.541Z,19.35
2018-05-11T19:03:33.169Z,19.40
2018-05-11T19:05:59.695Z,19.31
2018-05-11T19:08:26.408Z,19.14
2018-05-11T19:10:52.925Z,19.16
2018-05-11T19:13:20.266Z,19.12
2018-05-11T19:15:46.806Z,19.05
2018-05-11T19:18:13.312Z,18.98
2018-05-11T19:20:43.947Z,18.97
2018-05-11T19:23:10.441Z,18.99
2018-05-11T19:25:37.011Z,19.00
2018-05-11T19:28:03.717Z,18.85
2018-05-11T19:30:30.263Z,18.82
2018-05-11T19:32:56.859Z,18.88
2018-05-11T19:35:23.358Z,18.90
2018-05-11T19:37:50.035Z,18.88
2018-05-11T19:40:16.504Z,18.86
2018-05-11T19:42:43.128Z,18.73
2018-05-11T19:45:09.590Z,18.80
2018-05-11T19:47:36.082Z,18.79
2018-05-11T19:50:02.594Z,18.78
2018-05-11T19:52:29.080Z,18.78
2018-05-11T19:54:55.560Z,18.76
2018-05-11T19:57:22.125Z,18.81
2018-05-11T19:59:48.543Z,18.69
2018-05-11T20:02:15.053Z,18.76
2018-05-11T20:04:41.521Z,18.67
2018-05-11T20:07:08.037Z,18.52
2018-05-11T20:09:34.561Z,18.60
2018-05-11T20:12:01.352Z,18.74
2018-05-11T20:14:27.974Z,18.59
2018-05-11T20:16:54.454Z,18.62
2018-05-11T20:19:20.970Z,18.51
2018-05-11T20:21:47.609Z,18.48
2018-05-11T20:24:14.446Z,18.59
2018-05-11T20:26:40.993Z,18.44
2018-05-11T20:29:08.508Z,18.39
2018-05-11T20:31:34.955Z,18.37
2018-05-11T20:34:01.539Z,18.45
2018-05-11T20:36:28.276Z,18.33
2018-05-11T20:38:55.651Z,18.52
2018-05-11T20:41:22.328Z,18.44
2018-05-11T20:43:48.837Z,18.47
2018-05-11T20:46:15.349Z,18.48
2018-05-11T20:48:42.640Z,18.45
2018-05-11T20:51:09.989Z,18.51
2018-05-11T20:53:36.757Z,18.39
2018-05-11T20:56:03.257Z,18.49
2018-05-11T20:58:29.854Z,18.47
2018-05-11T21:00:56.534Z,18.39
2018-05-11T21:03:23.056Z,18.43
2018-05-11T21:05:50.242Z,18.44
2018-05-11T21:08:16.772Z,18.51
2018-05-11T21:10:43.282Z,18.38
2018-05-11T21:13:09.721Z,18.41
2018-05-11T21:15:36.150Z,18.43
2018-05-11T21:18:03.673Z,18.37
2018-05-11T21:20:30.992Z,18.40
2018-05-11T21:22:57.459Z,18.29
2018-05-11T21:25:24.678Z,18.34
2018-05-11T21:27:51.172Z,18.42
2018-05-11T21:30:17.658Z,18.37
2018-05-11T21:32:44.130Z,18.27
2018-05-11T21:35:10.582Z,18.41
2018-05-11T21:37:37.067Z,18.33
2018-05-11T21:40:03.560Z,18.35
2018-05-11T21:42:30.015Z,18.30
2018-05-11T21:44:56.467Z,18.32
2018-05-11T21:47:22.995Z,18.46
2018-05-11T21:49:50.371Z,18.42
2018-05-11T21:52:17.617Z,18.36
2018-05-11T21:54:44.836Z,18.55
2018-05-11T21:57:11.470Z,18.49
2018-05-11T21:59:38.126Z,18.47
2018-05-11T22:02:04.644Z,18.45
2018-05-11T22:04:31.152Z,18.40
2018-05-11T22:06:57.593Z,18.46
2018-05-11T22:09:24.154Z,18.53
2018-05-11T22:11:50.601Z,18.58
2018-05-11T22:14:17.931Z,18.37
2018-05-11T22:16:44.319Z,18.46
2018-05-11T22:19:10.777Z,18.62
2018-05-11T22:21:37.226Z,18.52
2018-05-11T22:24:04.513Z,18.48
2018-05-11T22:26:31.096Z,18.38
2018-05-11T22:28:57.555Z,18.34
2018-05-11T22:31:23.967Z,18.41
2018-05-11T22:33:50.489Z,18.39
2018-05-11T22:36:16.984Z,18.47
2018-05-11T22:38:44.185Z,18.47
2018-05-11T22:41:10.630Z,18.53
2018-05-11T22:43:37.029Z,18.58
2018-05-11T22:46:03.535Z,18.54
2018-05-11T22:48:29.935Z,18.44
2018-05-11T22:50:56.382Z,18.55
2018-05-11T22:53:22.817Z,18.45
2018-05-11T22:55:49.301Z,18.44
2018-05-11T22:58:15.752Z,18.49
2018-05-11T23:00:42.195Z,18.48
2018-05-11T23:03:08.674Z,18.46
2018-05-11T23:05:35.102Z,18.36
2018-05-11T23:08:01.549Z,18.40
2018-05-11T23:10:28.101Z,18.36
2018-05-11T23:12:54.539Z,18.44
2018-05-11T23:15:21.481Z,18.34
2018-05-11T23:17:47.945Z,18.32
2018-05-11T23:20:14.472Z,18.44
2018-05-11T23:22:40.904Z,18.45
2018-05-11T23:25:07.382Z,18.42
2018-05-11T23:27:33.819Z,18.32
2018-05-11T23:30:00.267Z,18.40
2018-05-11T23:32:26.697Z,18.42
2018-05-11T23:34:53.147Z,18.43
2018-05-11T23:37:19.556Z,18.38
2018-05-11T23:39:45.966Z,18.41
2018-05-11T23:42:12.425Z,18.41
2018-05-11T23:44:38.922Z,18.34
2018-05-11T23:47:05.302Z,18.30
2018-05-11T23:49:31.787Z,18.33
2018-05-11T23:51:58.958Z,18.29
2018-05-11T23:54:25.838Z,18.20
2018-05-11T23:56:52.270Z,18.19
2018-05-11T23:59:18.704Z,18.26
